sensor_id;sensor_type;location;lat;lon;timestamp;pressure;altitude;pressure_sealevel;temperature;humidity
18985;BME280;9626;52.552;13.436;2023-04-07T00:00:46;101373.50;;;4.90;65.41
18985;BME280;9626;52.552;13.436;2023-04-07T00:03:13;101368.03;;;4.74;66.46
18985;BME280;9626;52.552;13.436;2023-04-07T00:05:39;101367.28;;;4.83;66.55
18985;BME280;9626;52.552;13.436;2023-04-07T00:08:06;101366.22;;;4.70;67.99
18985;BME280;9626;52.552;13.436;2023-04-07T00:10:32;101367.94;;;4.68;69.04
18985;BME280;9626;52.552;13.436;2023-04-07T00:12:58;101372.97;;;4.56;69.78
18985;BME280;9626;52.552;13.436;2023-04-07T00:15:25;101369.31;;;4.45;70.00
18985;BME280;9626;52.552;13.436;2023-04-07T00:17:51;101362.13;;;4.34;70.79
18985;BME280;9626;52.552;13.436;2023-04-07T00:20:17;101360.72;;;4.55;69.78
18985;BME280;9626;52.552;13.436;2023-04-07T00:22:43;101357.13;;;4.50;67.83
18985;BME280;9626;52.552;13.436;2023-04-07T00:25:10;101360.09;;;4.16;69.54
18985;BME280;9626;52.552;13.436;2023-04-07T00:27:36;101360.47;;;3.87;71.86
18985;BME280;9626;52.552;13.436;2023-04-07T00:30:02;101357.72;;;3.83;72.84
18985;BME280;9626;52.552;13.436;2023-04-07T00:32:31;101358.31;;;4.14;71.47
18985;BME280;9626;52.552;13.436;2023-04-07T00:34:58;101354.09;;;4.25;69.22
18985;BME280;9626;52.552;13.436;2023-04-07T00:37:24;101354.09;;;4.23;69.10
18985;BME280;9626;52.552;13.436;2023-04-07T00:39:52;101353.94;;;4.16;70.66
18985;BME280;9626;52.552;13.436;2023-04-07T00:42:18;101356.47;;;4.10;71.60
18985;BME280;9626;52.552;13.436;2023-04-07T00:44:45;101360.06;;;4.15;71.31
18985;BME280;9626;52.552;13.436;2023-04-07T00:47:11;101352.81;;;4.00;72.40
18985;BME280;9626;52.552;13.436;2023-04-07T00:49:37;101349.06;;;3.87;73.42
18985;BME280;9626;52.552;13.436;2023-04-07T00:52:04;101348.97;;;3.81;74.07
18985;BME280;9626;52.552;13.436;2023-04-07T00:54:31;101351.56;;;3.78;74.31
18985;BME280;9626;52.552;13.436;2023-04-07T00:56:57;101349.78;;;3.77;76.08
18985;BME280;9626;52.552;13.436;2023-04-07T00:59:24;101348.66;;;3.65;76.12
18985;BME280;9626;52.552;13.436;2023-04-07T01:02:04;101340.72;;;3.61;76.71
18985;BME280;9626;52.552;13.436;2023-04-07T01:04:39;101338.09;;;3.59;78.01
18985;BME280;9626;52.552;13.436;2023-04-07T01:07:12;101336.56;;;3.26;80.18
18985;BME280;9626;52.552;13.436;2023-04-07T01:09:45;101330.88;;;3.49;80.74
18985;BME280;9626;52.552;13.436;2023-04-07T01:15:10;101334.84;;;3.72;75.22
18985;BME280;9626;52.552;13.436;2023-04-07T01:17:44;101331.31;;;3.70;75.98
18985;BME280;9626;52.552;13.436;2023-04-07T01:20:15;101321.44;;;3.57;77.62
18985;BME280;9626;52.552;13.436;2023-04-07T01:22:46;101323.13;;;3.52;78.42
18985;BME280;9626;52.552;13.436;2023-04-07T01:30:31;101319.81;;;3.62;77.07
18985;BME280;9626;52.552;13.436;2023-04-07T01:32:59;101312.84;;;3.63;77.53
18985;BME280;9626;52.552;13.436;2023-04-07T01:35:28;101320.34;;;3.90;75.50
18985;BME280;9626;52.552;13.436;2023-04-07T01:37:56;101322.16;;;3.96;74.30
18985;BME280;9626;52.552;13.436;2023-04-07T01:40:23;101315.81;;;3.83;74.39
18985;BME280;9626;52.552;13.436;2023-04-07T01:42:50;101309.38;;;3.65;74.85
18985;BME280;9626;52.552;13.436;2023-04-07T01:45:17;101312.34;;;3.38;77.90
18985;BME280;9626;52.552;13.436;2023-04-07T01:47:43;101315.03;;;3.40;78.48
18985;BME280;9626;52.552;13.436;2023-04-07T01:50:11;101315.41;;;3.61;78.02
18985;BME280;9626;52.552;13.436;2023-04-07T01:52:38;101312.09;;;3.70;76.73
18985;BME280;9626;52.552;13.436;2023-04-07T01:55:06;101317.19;;;3.62;77.47
18985;BME280;9626;52.552;13.436;2023-04-07T01:57:32;101314.16;;;3.41;78.09
18985;BME280;9626;52.552;13.436;2023-04-07T01:59:58;101315.94;;;3.43;79.20
18985;BME280;9626;52.552;13.436;2023-04-07T02:02:24;101311.38;;;3.31;78.81
18985;BME280;9626;52.552;13.436;2023-04-07T02:04:57;101309.41;;;3.21;79.51
18985;BME280;9626;52.552;13.436;2023-04-07T02:07:47;101304.81;;;3.11;80.21
18985;BME280;9626;52.552;13.436;2023-04-07T02:10:16;101309.09;;;3.06;81.11
18985;BME280;9626;52.552;13.436;2023-04-07T02:12:45;101306.31;;;2.98;80.98
18985;BME280;9626;52.552;13.436;2023-04-07T02:15:12;101308.47;;;2.78;82.17
18985;BME280;9626;52.552;13.436;2023-04-07T02:17:43;101305.09;;;2.82;82.78
18985;BME280;9626;52.552;13.436;2023-04-07T02:20:11;101300.81;;;2.85;80.99
18985;BME280;9626;52.552;13.436;2023-04-07T02:22:38;101299.09;;;2.87;78.97
18985;BME280;9626;52.552;13.436;2023-04-07T02:27:48;101291.06;;;3.19;76.52
18985;BME280;9626;52.552;13.436;2023-04-07T02:30:14;101295.22;;;3.10;75.99
18985;BME280;9626;52.552;13.436;2023-04-07T02:32:40;101301.88;;;2.95;77.47
18985;BME280;9626;52.552;13.436;2023-04-07T02:35:07;101294.28;;;3.08;77.85
18985;BME280;9626;52.552;13.436;2023-04-07T02:37:33;101291.28;;;3.30;76.69
18985;BME280;9626;52.552;13.436;2023-04-07T02:39:59;101289.78;;;3.45;75.60
18985;BME280;9626;52.552;13.436;2023-04-07T02:42:25;101288.09;;;3.47;75.04
18985;BME280;9626;52.552;13.436;2023-04-07T02:44:52;101288.66;;;3.30;76.44
18985;BME280;9626;52.552;13.436;2023-04-07T02:47:18;101290.09;;;3.16;76.63
18985;BME280;9626;52.552;13.436;2023-04-07T02:49:44;101288.94;;;3.01;78.18
18985;BME280;9626;52.552;13.436;2023-04-07T02:52:11;101293.19;;;2.96;78.31
18985;BME280;9626;52.552;13.436;2023-04-07T02:54:37;101291.00;;;2.77;80.95
18985;BME280;9626;52.552;13.436;2023-04-07T02:57:03;101284.56;;;2.59;82.78
18985;BME280;9626;52.552;13.436;2023-04-07T02:59:29;101287.34;;;2.68;82.68
18985;BME280;9626;52.552;13.436;2023-04-07T03:01:55;101282.19;;;2.70;83.12
18985;BME280;9626;52.552;13.436;2023-04-07T03:04:21;101292.78;;;2.78;82.44
18985;BME280;9626;52.552;13.436;2023-04-07T03:06:47;101282.28;;;2.75;82.68
18985;BME280;9626;52.552;13.436;2023-04-07T03:09:13;101291.00;;;2.77;84.08
18985;BME280;9626;52.552;13.436;2023-04-07T03:11:39;101290.03;;;2.70;84.19
18985;BME280;9626;52.552;13.436;2023-04-07T03:14:06;101290.94;;;2.72;83.00
18985;BME280;9626;52.552;13.436;2023-04-07T03:16:32;101287.19;;;2.61;83.76
18985;BME280;9626;52.552;13.436;2023-04-07T03:18:58;101283.13;;;2.75;83.76
18985;BME280;9626;52.552;13.436;2023-04-07T03:21:24;101277.91;;;2.75;83.72
18985;BME280;9626;52.552;13.436;2023-04-07T03:23:50;101274.78;;;2.52;85.13
18985;BME280;9626;52.552;13.436;2023-04-07T03:26:16;101275.69;;;2.52;85.91
18985;BME280;9626;52.552;13.436;2023-04-07T03:28:42;101276.78;;;2.62;84.63
18985;BME280;9626;52.552;13.436;2023-04-07T03:31:08;101275.31;;;2.77;83.46
18985;BME280;9626;52.552;13.436;2023-04-07T03:33:34;101272.53;;;2.67;83.06
18985;BME280;9626;52.552;13.436;2023-04-07T03:36:00;101270.09;;;2.77;83.83
18985;BME280;9626;52.552;13.436;2023-04-07T03:38:26;101269.97;;;2.70;83.10
18985;BME280;9626;52.552;13.436;2023-04-07T03:40:52;101266.25;;;2.59;84.12
18985;BME280;9626;52.552;13.436;2023-04-07T03:43:18;101259.72;;;2.40;86.20
18985;BME280;9626;52.552;13.436;2023-04-07T03:45:45;101262.44;;;2.45;86.40
18985;BME280;9626;52.552;13.436;2023-04-07T03:48:11;101261.63;;;2.47;87.59
18985;BME280;9626;52.552;13.436;2023-04-07T03:50:38;101264.88;;;2.39;87.41
18985;BME280;9626;52.552;13.436;2023-04-07T03:53:05;101262.59;;;2.51;86.81
18985;BME280;9626;52.552;13.436;2023-04-07T03:55:32;101267.69;;;2.46;87.62
18985;BME280;9626;52.552;13.436;2023-04-07T03:57:58;101266.03;;;2.50;86.81
18985;BME280;9626;52.552;13.436;2023-04-07T04:00:24;101259.97;;;2.51;87.23
18985;BME280;9626;52.552;13.436;2023-04-07T04:02:52;101267.91;;;2.56;87.21
18985;BME280;9626;52.552;13.436;2023-04-07T04:05:18;101263.53;;;2.56;86.97
18985;BME280;9626;52.552;13.436;2023-04-07T04:07:44;101266.91;;;2.50;87.39
18985;BME280;9626;52.552;13.436;2023-04-07T04:10:10;101266.84;;;2.47;87.41
18985;BME280;9626;52.552;13.436;2023-04-07T04:12:36;101267.88;;;2.54;88.52
18985;BME280;9626;52.552;13.436;2023-04-07T04:15:03;101273.03;;;2.51;87.21
18985;BME280;9626;52.552;13.436;2023-04-07T04:17:29;101272.88;;;2.45;88.06
18985;BME280;9626;52.552;13.436;2023-04-07T04:19:55;101267.81;;;2.51;88.40
18985;BME280;9626;52.552;13.436;2023-04-07T04:22:21;101271.31;;;2.53;88.43
18985;BME280;9626;52.552;13.436;2023-04-07T04:24:47;101272.34;;;2.60;87.42
18985;BME280;9626;52.552;13.436;2023-04-07T04:27:13;101267.59;;;2.42;88.32
18985;BME280;9626;52.552;13.436;2023-04-07T04:29:39;101267.47;;;2.37;90.52
18985;BME280;9626;52.552;13.436;2023-04-07T04:32:05;101268.63;;;2.48;90.14
18985;BME280;9626;52.552;13.436;2023-04-07T04:34:31;101268.00;;;2.60;88.30
18985;BME280;9626;52.552;13.436;2023-04-07T04:36:57;101264.16;;;2.43;89.82
18985;BME280;9626;52.552;13.436;2023-04-07T04:39:23;101274.09;;;2.21;91.46
18985;BME280;9626;52.552;13.436;2023-04-07T04:41:49;101268.63;;;2.12;93.46
18985;BME280;9626;52.552;13.436;2023-04-07T04:44:15;101276.28;;;2.04;95.38
18985;BME280;9626;52.552;13.436;2023-04-07T04:46:41;101269.38;;;2.06;95.86
18985;BME280;9626;52.552;13.436;2023-04-07T04:49:07;101275.41;;;2.03;96.96
18985;BME280;9626;52.552;13.436;2023-04-07T04:51:33;101273.63;;;2.02;97.24
18985;BME280;9626;52.552;13.436;2023-04-07T04:53:59;101272.31;;;2.20;96.08
18985;BME280;9626;52.552;13.436;2023-04-07T04:56:26;101279.38;;;2.24;95.10
18985;BME280;9626;52.552;13.436;2023-04-07T04:58:52;101284.66;;;2.27;94.07
18985;BME280;9626;52.552;13.436;2023-04-07T05:01:18;101286.97;;;2.13;95.83
18985;BME280;9626;52.552;13.436;2023-04-07T05:03:44;101286.00;;;2.10;96.93
18985;BME280;9626;52.552;13.436;2023-04-07T05:06:10;101279.13;;;2.13;97.38
18985;BME280;9626;52.552;13.436;2023-04-07T05:08:36;101287.16;;;2.21;96.83
18985;BME280;9626;52.552;13.436;2023-04-07T05:11:02;101288.22;;;2.29;97.01
18985;BME280;9626;52.552;13.436;2023-04-07T05:13:28;101289.84;;;2.24;97.24
18985;BME280;9626;52.552;13.436;2023-04-07T05:15:55;101288.06;;;2.23;98.33
18985;BME280;9626;52.552;13.436;2023-04-07T05:18:21;101288.19;;;2.28;97.24
18985;BME280;9626;52.552;13.436;2023-04-07T05:20:48;101288.28;;;2.32;97.70
18985;BME280;9626;52.552;13.436;2023-04-07T05:23:14;101288.38;;;2.37;97.74
18985;BME280;9626;52.552;13.436;2023-04-07T05:25:40;101289.41;;;2.44;96.73
18985;BME280;9626;52.552;13.436;2023-04-07T05:28:07;101275.56;;;2.48;96.50
18985;BME280;9626;52.552;13.436;2023-04-07T05:30:33;101276.56;;;2.53;95.89
18985;BME280;9626;52.552;13.436;2023-04-07T05:32:59;101281.16;;;2.63;95.05
18985;BME280;9626;52.552;13.436;2023-04-07T05:35:25;101279.47;;;2.67;94.69
18985;BME280;9626;52.552;13.436;2023-04-07T05:37:51;101278.53;;;2.63;94.35
18985;BME280;9626;52.552;13.436;2023-04-07T05:40:17;101279.31;;;2.59;95.56
18985;BME280;9626;52.552;13.436;2023-04-07T05:42:43;101274.22;;;2.65;95.70
18985;BME280;9626;52.552;13.436;2023-04-07T05:45:10;101278.81;;;2.76;94.53
18985;BME280;9626;52.552;13.436;2023-04-07T05:47:36;101281.53;;;2.82;93.43
18985;BME280;9626;52.552;13.436;2023-04-07T05:50:02;101276.44;;;2.86;93.94
18985;BME280;9626;52.552;13.436;2023-04-07T05:52:28;101282.31;;;2.78;93.75
18985;BME280;9626;52.552;13.436;2023-04-07T05:54:54;101277.25;;;2.84;93.88
18985;BME280;9626;52.552;13.436;2023-04-07T05:57:21;101278.34;;;2.95;92.53
18985;BME280;9626;52.552;13.436;2023-04-07T05:59:47;101283.50;;;2.91;92.46
18985;BME280;9626;52.552;13.436;2023-04-07T06:02:13;101285.28;;;2.93;92.35
18985;BME280;9626;52.552;13.436;2023-04-07T06:04:40;101286.91;;;2.86;92.96
18985;BME280;9626;52.552;13.436;2023-04-07T06:07:06;101288.53;;;2.81;94.00
18985;BME280;9626;52.552;13.436;2023-04-07T06:09:32;101288.56;;;2.84;95.00
18985;BME280;9626;52.552;13.436;2023-04-07T06:11:58;101295.75;;;2.93;95.08
18985;BME280;9626;52.552;13.436;2023-04-07T06:14:26;101286.44;;;3.08;94.19
18985;BME280;9626;52.552;13.436;2023-04-07T06:16:52;101289.38;;;3.23;93.07
18985;BME280;9626;52.552;13.436;2023-04-07T06:19:18;101292.16;;;3.31;93.02
18985;BME280;9626;52.552;13.436;2023-04-07T06:21:43;101290.34;;;3.28;93.42
18985;BME280;9626;52.552;13.436;2023-04-07T06:24:10;101300.75;;;3.25;94.18
18985;BME280;9626;52.552;13.436;2023-04-07T06:26:36;101293.81;;;3.27;94.87
18985;BME280;9626;52.552;13.436;2023-04-07T06:29:04;101297.41;;;3.32;95.30
18985;BME280;9626;52.552;13.436;2023-04-07T06:31:30;101302.75;;;3.37;95.58
18985;BME280;9626;52.552;13.436;2023-04-07T06:33:57;101309.81;;;3.41;96.12
18985;BME280;9626;52.552;13.436;2023-04-07T06:36:23;101301.13;;;3.44;96.43
18985;BME280;9626;52.552;13.436;2023-04-07T06:38:49;101302.03;;;3.46;96.96
18985;BME280;9626;52.552;13.436;2023-04-07T06:41:15;101308.47;;;3.63;96.48
18985;BME280;9626;52.552;13.436;2023-04-07T06:43:45;101301.69;;;3.75;95.19
18985;BME280;9626;52.552;13.436;2023-04-07T06:46:12;101310.47;;;3.77;95.43
18985;BME280;9626;52.552;13.436;2023-04-07T06:48:38;101308.69;;;3.74;95.95
18985;BME280;9626;52.552;13.436;2023-04-07T06:51:04;101309.56;;;3.76;96.99
18985;BME280;9626;52.552;13.436;2023-04-07T06:53:30;101307.06;;;3.81;97.70
18985;BME280;9626;52.552;13.436;2023-04-07T06:56:07;101308.94;;;3.88;97.54
18985;BME280;9626;52.552;13.436;2023-04-07T06:58:35;101310.78;;;3.95;97.56
18985;BME280;9626;52.552;13.436;2023-04-07T07:01:02;101309.16;;;4.02;96.97
18985;BME280;9626;52.552;13.436;2023-04-07T07:03:30;101305.66;;;4.01;97.47
18985;BME280;9626;52.552;13.436;2023-04-07T07:05:58;101304.94;;;4.12;96.85
18985;BME280;9626;52.552;13.436;2023-04-07T07:08:25;101309.53;;;4.25;96.72
18985;BME280;9626;52.552;13.436;2023-04-07T07:10:51;101305.22;;;4.27;93.37
18985;BME280;9626;52.552;13.436;2023-04-07T07:13:18;101311.44;;;4.32;90.05
18985;BME280;9626;52.552;13.436;2023-04-07T07:15:44;101309.69;;;4.34;87.45
18985;BME280;9626;52.552;13.436;2023-04-07T07:18:12;101311.50;;;4.38;85.98
18985;BME280;9626;52.552;13.436;2023-04-07T07:20:38;101311.66;;;4.48;84.67
18985;BME280;9626;52.552;13.436;2023-04-07T07:23:04;101317.78;;;4.48;80.26
18985;BME280;9626;52.552;13.436;2023-04-07T07:25:30;101317.09;;;4.60;77.98
18985;BME280;9626;52.552;13.436;2023-04-07T07:27:56;101318.94;;;4.67;76.08
18985;BME280;9626;52.552;13.436;2023-04-07T07:30:23;101312.06;;;4.77;73.94
18985;BME280;9626;52.552;13.436;2023-04-07T07:32:49;101321.84;;;4.87;72.68
18985;BME280;9626;52.552;13.436;2023-04-07T07:35:16;101321.16;;;4.99;71.21
18985;BME280;9626;52.552;13.436;2023-04-07T07:37:42;101313.44;;;5.13;69.12
18985;BME280;9626;52.552;13.436;2023-04-07T07:40:09;101315.38;;;5.30;66.78
18985;BME280;9626;52.552;13.436;2023-04-07T07:42:37;101322.47;;;5.37;66.43
18985;BME280;9626;52.552;13.436;2023-04-07T07:45:04;101319.91;;;5.41;64.70
18985;BME280;9626;52.552;13.436;2023-04-07T07:47:30;101328.72;;;5.47;64.45
18985;BME280;9626;52.552;13.436;2023-04-07T07:49:56;101326.06;;;5.44;62.50
18985;BME280;9626;52.552;13.436;2023-04-07T07:52:23;101329.59;;;5.46;60.95
18985;BME280;9626;52.552;13.436;2023-04-07T07:54:49;101332.91;;;5.31;60.78
18985;BME280;9626;52.552;13.436;2023-04-07T07:57:16;101333.81;;;5.33;60.96
18985;BME280;9626;52.552;13.436;2023-04-07T07:59:42;101328.69;;;5.44;61.10
18985;BME280;9626;52.552;13.436;2023-04-07T08:02:08;101330.47;;;5.48;61.72
18985;BME280;9626;52.552;13.436;2023-04-07T08:04:35;101335.81;;;5.54;62.14
18985;BME280;9626;52.552;13.436;2023-04-07T08:07:02;101335.94;;;5.63;60.79
18985;BME280;9626;52.552;13.436;2023-04-07T08:09:29;101334.22;;;5.68;59.09
18985;BME280;9626;52.552;13.436;2023-04-07T08:11:57;101338.56;;;5.65;58.90
18985;BME280;9626;52.552;13.436;2023-04-07T08:14:23;101343.06;;;5.76;58.25
18985;BME280;9626;52.552;13.436;2023-04-07T08:16:49;101344.81;;;5.78;57.98
18985;BME280;9626;52.552;13.436;2023-04-07T08:19:15;101350.19;;;5.87;57.97
18985;BME280;9626;52.552;13.436;2023-04-07T08:21:41;101344.22;;;6.00;57.80
18985;BME280;9626;52.552;13.436;2023-04-07T08:24:08;101339.94;;;6.13;56.07
18985;BME280;9626;52.552;13.436;2023-04-07T08:26:34;101342.69;;;6.27;55.75
18985;BME280;9626;52.552;13.436;2023-04-07T08:29:00;101338.34;;;6.34;55.37
18985;BME280;9626;52.552;13.436;2023-04-07T08:31:26;101341.78;;;6.23;55.59
18985;BME280;9626;52.552;13.436;2023-04-07T08:33:53;101345.28;;;6.24;55.65
18985;BME280;9626;52.552;13.436;2023-04-07T08:36:26;101340.94;;;6.26;55.52
18985;BME280;9626;52.552;13.436;2023-04-07T08:38:53;101339.06;;;6.13;55.06
18985;BME280;9626;52.552;13.436;2023-04-07T08:41:23;101336.47;;;6.19;54.40
18985;BME280;9626;52.552;13.436;2023-04-07T08:43:52;101344.44;;;6.23;54.59
18985;BME280;9626;52.552;13.436;2023-04-07T08:46:20;101344.53;;;6.37;54.53
18985;BME280;9626;52.552;13.436;2023-04-07T08:48:50;101341.91;;;6.37;55.12
18985;BME280;9626;52.552;13.436;2023-04-07T08:51:23;101349.88;;;6.43;55.34
18985;BME280;9626;52.552;13.436;2023-04-07T08:53:56;101348.94;;;6.41;56.44
18985;BME280;9626;52.552;13.436;2023-04-07T08:56:23;101361.22;;;6.39;56.21
18985;BME280;9626;52.552;13.436;2023-04-07T08:58:50;101366.50;;;6.39;54.33
18985;BME280;9626;52.552;13.436;2023-04-07T09:01:17;101360.41;;;6.47;52.63
18985;BME280;9626;52.552;13.436;2023-04-07T09:03:43;101368.25;;;6.42;52.75
18985;BME280;9626;52.552;13.436;2023-04-07T09:06:10;101355.91;;;6.33;52.21
18985;BME280;9626;52.552;13.436;2023-04-07T09:08:36;101368.03;;;6.16;50.85
18985;BME280;9626;52.552;13.436;2023-04-07T09:11:02;101371.56;;;6.16;50.25
18985;BME280;9626;52.552;13.436;2023-04-07T09:13:28;101373.09;;;5.97;50.69
18985;BME280;9626;52.552;13.436;2023-04-07T09:15:57;101370.44;;;5.97;50.56
18985;BME280;9626;52.552;13.436;2023-04-07T09:18:24;101378.25;;;5.89;50.98
18985;BME280;9626;52.552;13.436;2023-04-07T09:20:56;101366.78;;;5.84;51.03
18985;BME280;9626;52.552;13.436;2023-04-07T09:23:33;101370.28;;;5.83;51.78
18985;BME280;9626;52.552;13.436;2023-04-07T09:26:17;101368.56;;;5.85;52.34
18985;BME280;9626;52.552;13.436;2023-04-07T09:28:45;101364.22;;;5.89;52.17
18985;BME280;9626;52.552;13.436;2023-04-07T09:31:12;101379.13;;;5.93;52.70
18985;BME280;9626;52.552;13.436;2023-04-07T09:33:38;101380.19;;;6.03;52.68
18985;BME280;9626;52.552;13.436;2023-04-07T09:36:04;101380.06;;;5.95;53.22
18985;BME280;9626;52.552;13.436;2023-04-07T09:38:35;101379.94;;;5.84;53.60
18985;BME280;9626;52.552;13.436;2023-04-07T09:43:39;101373.81;;;5.84;53.78
18985;BME280;9626;52.552;13.436;2023-04-07T09:46:10;101377.31;;;5.83;53.86
18985;BME280;9626;52.552;13.436;2023-04-07T09:48:36;101378.16;;;5.82;54.06
18985;BME280;9626;52.552;13.436;2023-04-07T09:51:09;101370.22;;;5.74;54.51
18985;BME280;9626;52.552;13.436;2023-04-07T09:53:44;101374.66;;;5.81;54.69
18985;BME280;9626;52.552;13.436;2023-04-07T09:56:11;101372.94;;;5.85;54.54
18985;BME280;9626;52.552;13.436;2023-04-07T09:58:38;101370.38;;;5.91;54.97
18985;BME280;9626;52.552;13.436;2023-04-07T10:01:08;101374.00;;;5.99;55.10
18985;BME280;9626;52.552;13.436;2023-04-07T10:03:35;101373.88;;;5.93;54.95
18985;BME280;9626;52.552;13.436;2023-04-07T10:06:02;101373.00;;;5.89;55.75
18985;BME280;9626;52.552;13.436;2023-04-07T10:08:30;101379.19;;;5.96;55.80
18985;BME280;9626;52.552;13.436;2023-04-07T10:10:58;101380.06;;;5.97;56.28
18985;BME280;9626;52.552;13.436;2023-04-07T10:13:27;101376.66;;;6.02;56.50
18985;BME280;9626;52.552;13.436;2023-04-07T10:15:54;101377.56;;;6.03;56.67
18985;BME280;9626;52.552;13.436;2023-04-07T10:18:21;101376.66;;;6.02;57.11
18985;BME280;9626;52.552;13.436;2023-04-07T10:20:48;101376.63;;;5.98;57.82
18985;BME280;9626;52.552;13.436;2023-04-07T10:23:21;101373.94;;;5.95;58.68
18985;BME280;9626;52.552;13.436;2023-04-07T10:25:52;101378.34;;;5.97;59.02
18985;BME280;9626;52.552;13.436;2023-04-07T10:28:21;101377.59;;;6.07;59.68
18985;BME280;9626;52.552;13.436;2023-04-07T10:30:49;101376.63;;;5.98;60.72
18985;BME280;9626;52.552;13.436;2023-04-07T10:33:16;101374.03;;;6.02;62.57
18985;BME280;9626;52.552;13.436;2023-04-07T10:36:02;101379.28;;;6.02;64.73
18985;BME280;9626;52.552;13.436;2023-04-07T10:38:30;101380.22;;;6.11;65.08
18985;BME280;9626;52.552;13.436;2023-04-07T10:40:56;101375.97;;;6.22;65.11
18985;BME280;9626;52.552;13.436;2023-04-07T10:43:42;101374.13;;;6.12;69.58
18985;BME280;9626;52.552;13.436;2023-04-07T10:46:09;101376.81;;;6.18;73.37
18985;BME280;9626;52.552;13.436;2023-04-07T10:48:35;101374.13;;;6.12;81.99
18985;BME280;9626;52.552;13.436;2023-04-07T10:53:31;101377.63;;;6.12;95.21
18985;BME280;9626;52.552;13.436;2023-04-07T10:55:57;101369.69;;;6.09;98.57
18985;BME280;9626;52.552;13.436;2023-04-07T10:58:30;101374.97;;;6.11;100.00
18985;BME280;9626;52.552;13.436;2023-04-07T11:03:34;101362.72;;;6.09;100.00
18985;BME280;9626;52.552;13.436;2023-04-07T11:06:11;101373.16;;;6.03;100.00
18985;BME280;9626;52.552;13.436;2023-04-07T11:08:39;101373.88;;;5.93;100.00
18985;BME280;9626;52.552;13.436;2023-04-07T11:11:08;101370.38;;;5.89;100.00
18985;BME280;9626;52.552;13.436;2023-04-07T11:16:11;101366.22;;;6.08;100.00
18985;BME280;9626;52.552;13.436;2023-04-07T11:18:38;101363.69;;;6.19;100.00
18985;BME280;9626;52.552;13.436;2023-04-07T11:21:05;101360.22;;;6.23;100.00
18985;BME280;9626;52.552;13.436;2023-04-07T11:23:40;101354.94;;;6.20;100.00
18985;BME280;9626;52.552;13.436;2023-04-07T11:26:07;101361.09;;;6.27;100.00
18985;BME280;9626;52.552;13.436;2023-04-07T11:28:34;101355.81;;;6.21;100.00
18985;BME280;9626;52.552;13.436;2023-04-07T11:31:02;101362.75;;;6.16;100.00
18985;BME280;9626;52.552;13.436;2023-04-07T11:33:30;101364.53;;;6.20;100.00
18985;BME280;9626;52.552;13.436;2023-04-07T11:35:58;101365.44;;;6.20;100.00
18985;BME280;9626;52.552;13.436;2023-04-07T11:38:27;101360.97;;;6.12;100.00
18985;BME280;9626;52.552;13.436;2023-04-07T11:40:54;101363.56;;;6.07;100.00
18985;BME280;9626;52.552;13.436;2023-04-07T11:43:23;101372.34;;;6.11;100.00
18985;BME280;9626;52.552;13.436;2023-04-07T11:46:10;101361.78;;;6.04;100.00
18985;BME280;9626;52.552;13.436;2023-04-07T11:48:38;101360.75;;;5.93;100.00
18985;BME280;9626;52.552;13.436;2023-04-07T11:51:06;101365.94;;;5.87;100.00
18985;BME280;9626;52.552;13.436;2023-04-07T11:53:39;101367.66;;;5.85;100.00
18985;BME280;9626;52.552;13.436;2023-04-07T11:56:13;101365.88;;;5.81;100.00
18985;BME280;9626;52.552;13.436;2023-04-07T12:01:13;101358.94;;;5.86;100.00
18985;BME280;9626;52.552;13.436;2023-04-07T12:04:00;101350.19;;;5.87;100.00
18985;BME280;9626;52.552;13.436;2023-04-07T12:08:55;101360.59;;;5.78;100.00
18985;BME280;9626;52.552;13.436;2023-04-07T12:11:21;101357.09;;;5.75;100.00
18985;BME280;9626;52.552;13.436;2023-04-07T12:13:47;101357.00;;;5.69;100.00
18985;BME280;9626;52.552;13.436;2023-04-07T12:16:13;101353.41;;;5.61;100.00
18985;BME280;9626;52.552;13.436;2023-04-07T12:18:39;101365.69;;;5.64;100.00
18985;BME280;9626;52.552;13.436;2023-04-07T12:21:05;101362.19;;;5.63;100.00
18985;BME280;9626;52.552;13.436;2023-04-07T12:23:31;101360.44;;;5.62;100.00
18985;BME280;9626;52.552;13.436;2023-04-07T12:25:58;101367.50;;;5.68;100.00
18985;BME280;9626;52.552;13.436;2023-04-07T12:28:24;101362.25;;;5.69;100.00
18985;BME280;9626;52.552;13.436;2023-04-07T12:30:51;101360.50;;;5.70;100.00
18985;BME280;9626;52.552;13.436;2023-04-07T12:33:17;101356.97;;;5.66;100.00
18985;BME280;9626;52.552;13.436;2023-04-07T12:35:43;101357.91;;;5.71;100.00
18985;BME280;9626;52.552;13.436;2023-04-07T12:38:10;101351.81;;;5.74;100.00
18985;BME280;9626;52.552;13.436;2023-04-07T12:40:37;101362.38;;;5.79;100.00
18985;BME280;9626;52.552;13.436;2023-04-07T12:43:04;101349.34;;;5.89;100.00
18985;BME280;9626;52.552;13.436;2023-04-07T12:45:30;101362.66;;;6.03;100.00
18985;BME280;9626;52.552;13.436;2023-04-07T12:47:57;101353.88;;;6.01;100.00
18985;BME280;9626;52.552;13.436;2023-04-07T12:50:23;101359.91;;;5.96;100.00
18985;BME280;9626;52.552;13.436;2023-04-07T12:52:50;101354.63;;;5.96;100.00
18985;BME280;9626;52.552;13.436;2023-04-07T12:55:19;101355.53;;;5.96;100.00
18985;BME280;9626;52.552;13.436;2023-04-07T12:57:47;101352.97;;;6.01;100.00
18985;BME280;9626;52.552;13.436;2023-04-07T13:00:13;101354.84;;;6.14;100.00
18985;BME280;9626;52.552;13.436;2023-04-07T13:02:39;101344.22;;;6.02;100.00
18985;BME280;9626;52.552;13.436;2023-04-07T13:05:06;101354.50;;;5.83;100.00
18985;BME280;9626;52.552;13.436;2023-04-07T13:07:32;101345.78;;;5.84;100.00
18985;BME280;9626;52.552;13.436;2023-04-07T13:10:01;101351.03;;;5.86;100.00
18985;BME280;9626;52.552;13.436;2023-04-07T13:12:29;101353.78;;;5.95;100.00
18985;BME280;9626;52.552;13.436;2023-04-07T13:14:55;101353.72;;;5.90;100.00
18985;BME280;9626;52.552;13.436;2023-04-07T13:17:21;101348.53;;;5.97;100.00
18985;BME280;9626;52.552;13.436;2023-04-07T13:19:47;101350.34;;;6.02;100.00
18985;BME280;9626;52.552;13.436;2023-04-07T13:22:13;101349.47;;;5.99;100.00
18985;BME280;9626;52.552;13.436;2023-04-07T13:24:39;101345.88;;;5.95;100.00